sim
Sign-in with your pilot id or email,
or register
Callsign
Passwort

Schedule Details

Flight Number: DLH2135 (3)
Departure: Munster Osnabruck International -?Airport (EDDG) at 08:10
Arrival: Munich Airport (EDDM) at 09:15
Route: Lufthansa Passenger Schedule. Enter filed route here before submitting Pirep.

Weather Information
Getting current METAR information for EDDG 010020Z 11003KT 030V180 CAVOK 12/10 Q1009 NOSIG
Getting current METAR information for EDDM 010020Z 33001KT 1500 0500NE R08L/0550D R08R/0700N BCFG NSC 05/05 Q1011 NOSIG

Schedule Frequency

Route Map